createdAt,value
2019-05-07T00:01:06.984Z,100
2019-05-07T00:06:07.199Z,99.96
2019-05-07T00:11:07.751Z,100
2019-05-07T00:15:08.773Z,100
2019-05-07T00:20:07.407Z,100
2019-05-07T00:25:07.560Z,100
2019-05-07T00:30:09.217Z,100
2019-05-07T00:35:07.866Z,100
2019-05-07T00:40:07.487Z,100
2019-05-07T00:45:24.263Z,100
2019-05-07T00:49:07.931Z,100
2019-05-07T00:54:07.018Z,99.81
2019-05-07T00:59:07.184Z,99.56
2019-05-07T01:04:13.065Z,99.83
2019-05-07T01:09:08.722Z,99.51
2019-05-07T01:14:08.978Z,99.3
2019-05-07T01:19:07.317Z,99.54
2019-05-07T01:23:08.035Z,97.38
2019-05-07T01:28:07.587Z,96.27
2019-05-07T01:33:07.603Z,96.61
2019-05-07T01:38:07.817Z,96.54
2019-05-07T01:43:07.415Z,97.51
2019-05-07T01:48:07.671Z,97.66
2019-05-07T01:53:06.946Z,97.72
2019-05-07T01:58:07.185Z,97.9
2019-05-07T02:02:07.206Z,98.79
2019-05-07T02:03:07.175Z,98.79
2019-05-07T02:07:07.611Z,99.22
2019-05-07T02:12:07.427Z,99.67
2019-05-07T02:17:07.382Z,100
2019-05-07T02:22:07.691Z,99.9
2019-05-07T02:27:07.899Z,99.78
2019-05-07T02:32:07.051Z,99.76
2019-05-07T02:36:07.544Z,99.79
2019-05-07T02:42:06.890Z,99.82
2019-05-07T02:46:36.538Z,100
2019-05-07T02:51:06.891Z,100
2019-05-07T02:56:07.134Z,100
2019-05-07T03:01:07.132Z,100
2019-05-07T03:06:07.551Z,100
2019-05-07T03:11:07.001Z,100
2019-05-07T03:15:09.062Z,100
2019-05-07T03:20:07.526Z,100
2019-05-07T03:25:07.729Z,100
2019-05-07T03:30:08.346Z,100
2019-05-07T03:35:08.888Z,100
2019-05-07T03:40:07.603Z,100
2019-05-07T03:45:08.765Z,100
2019-05-07T03:49:06.863Z,100
2019-05-07T03:54:07.116Z,100
2019-05-07T03:59:06.341Z,100
2019-05-07T04:04:07.075Z,100
2019-05-07T04:09:07.725Z,100
2019-05-07T04:14:06.972Z,100
2019-05-07T04:19:07.344Z,100
2019-05-07T04:24:06.916Z,100
2019-05-07T04:29:08.062Z,100
2019-05-07T04:33:07.388Z,100
2019-05-07T04:39:07.701Z,100
2019-05-07T04:43:07.281Z,100
2019-05-07T04:48:07.344Z,100
2019-05-07T04:53:07.688Z,100
2019-05-07T04:58:10.210Z,100
2019-05-07T05:03:06.893Z,100
2019-05-07T05:08:07.025Z,100
2019-05-07T05:12:07.223Z,100
2019-05-07T05:17:07.271Z,100
2019-05-07T05:22:07.510Z,100
2019-05-07T05:27:07.679Z,100
2019-05-07T05:32:07.084Z,100
2019-05-07T05:37:07.172Z,100
2019-05-07T05:42:07.775Z,100
2019-05-07T05:46:07.483Z,100
2019-05-07T05:51:07.723Z,100
2019-05-07T05:56:06.971Z,100
2019-05-07T06:01:07.741Z,100
2019-05-07T06:06:06.906Z,100
2019-05-07T06:11:07.731Z,100
2019-05-07T06:16:07.442Z,100
2019-05-07T06:21:07.801Z,100
2019-05-07T06:26:07.026Z,100
2019-05-07T06:30:08.881Z,100
2019-05-07T06:35:07.668Z,100
2019-05-07T06:40:07.315Z,100
2019-05-07T06:45:09.502Z,99.59
2019-05-07T06:50:07.253Z,100
2019-05-07T06:55:07.494Z,97.55
2019-05-07T06:59:07.036Z,98.98
2019-05-07T07:04:07.441Z,98.24
2019-05-07T07:09:08.188Z,98.14
2019-05-07T07:14:07.426Z,98.95
2019-05-07T07:19:07.076Z,96.79
2019-05-07T07:24:07.263Z,97.56
2019-05-07T07:28:07.695Z,96.49
2019-05-07T07:33:07.315Z,94.88
2019-05-07T07:38:07.454Z,95.42
2019-05-07T07:43:08.223Z,92.6
2019-05-07T07:48:07.202Z,91.88
2019-05-07T07:53:07.569Z,89.91
2019-05-07T07:58:06.929Z,81.65
2019-05-07T08:02:08.072Z,81.73
2019-05-07T08:03:07.014Z,81.73
2019-05-07T08:07:07.485Z,87.16
2019-05-07T08:12:07.961Z,89.54
2019-05-07T08:17:07.807Z,88.94
2019-05-07T08:22:07.068Z,89.11
2019-05-07T08:27:07.333Z,90.16
2019-05-07T08:32:07.737Z,82.95
2019-05-07T08:36:07.470Z,81.88
2019-05-07T08:41:07.181Z,78.74
2019-05-07T08:46:07.448Z,75.23
2019-05-07T08:51:07.690Z,75.49
2019-05-07T08:56:07.790Z,74.3
2019-05-07T09:01:07.460Z,74.07
2019-05-07T09:05:12.555Z,81.18
2019-05-07T09:06:07.543Z,81.18
2019-05-07T09:10:07.197Z,80.2
2019-05-07T09:15:08.750Z,81.09
2019-05-07T09:20:12.796Z,83.18
2019-05-07T09:25:07.020Z,78.55
2019-05-07T09:30:08.377Z,79.52
2019-05-07T09:35:07.365Z,77.71
2019-05-07T09:40:07.002Z,72.14
2019-05-07T09:45:08.598Z,72.67
2019-05-07T09:49:07.639Z,71.15
2019-05-07T09:55:18.192Z,62.79
2019-05-07T09:59:07.580Z,60.91
2019-05-07T10:04:06.955Z,62.39
2019-05-07T10:09:07.564Z,63.43
2019-05-07T10:14:07.795Z,63.74
2019-05-07T10:19:07.866Z,64.72
2019-05-07T10:23:07.307Z,62.32
2019-05-07T10:24:07.268Z,62.32
2019-05-07T10:28:07.630Z,58.77
2019-05-07T10:33:07.561Z,58.86
2019-05-07T10:38:07.562Z,55.56
2019-05-07T10:43:07.218Z,60.84
2019-05-07T10:48:07.552Z,59.03
2019-05-07T10:52:07.064Z,56.18
2019-05-07T10:53:06.985Z,56.18
2019-05-07T10:57:07.438Z,57.5
2019-05-07T11:02:06.881Z,59
2019-05-07T11:07:07.042Z,60.16
2019-05-07T11:12:07.571Z,56.91
2019-05-07T11:17:07.715Z,56.07
2019-05-07T11:22:07.824Z,50.76
2019-05-07T11:26:07.460Z,49
2019-05-07T11:31:07.095Z,48.07
2019-05-07T11:36:07.285Z,47.67
2019-05-07T11:41:07.873Z,49.74
2019-05-07T11:46:07.855Z,52.09
2019-05-07T11:51:06.969Z,55.3
2019-05-07T11:55:06.784Z,57.11
2019-05-07T12:00:09.470Z,51.99
2019-05-07T12:01:07.550Z,51.99
2019-05-07T12:05:06.950Z,47.71
2019-05-07T12:10:07.421Z,50.41
2019-05-07T12:15:08.624Z,46.62
2019-05-07T12:20:07.004Z,47.79
2019-05-07T12:25:07.187Z,48.66
2019-05-07T12:29:06.726Z,45.53
2019-05-07T12:35:07.262Z,45.8
2019-05-07T12:39:06.364Z,47.06
2019-05-07T12:44:07.424Z,42.66
2019-05-07T12:49:06.048Z,38.21
2019-05-07T12:54:07.254Z,40.13
2019-05-07T12:59:06.457Z,42.63
2019-05-07T13:03:07.399Z,43.05
2019-05-07T13:08:06.842Z,44.54
2019-05-07T13:13:07.500Z,43.51
2019-05-07T13:18:06.672Z,39.71
2019-05-07T13:23:07.700Z,43.06
2019-05-07T13:28:06.805Z,49.14
2019-05-07T13:33:07.594Z,47.11
2019-05-07T13:38:06.618Z,41.13
2019-05-07T13:43:07.180Z,37.41
2019-05-07T13:47:07.187Z,40.63
2019-05-07T13:48:06.119Z,40.63
2019-05-07T13:52:07.394Z,42.87
2019-05-07T13:57:06.546Z,43.61
2019-05-07T14:02:07.292Z,45.38
2019-05-07T14:07:06.399Z,43.79
2019-05-07T14:12:07.013Z,47.04
2019-05-07T14:16:07.864Z,48
2019-05-07T14:21:06.209Z,46.31
2019-05-07T14:26:07.362Z,47.69
2019-05-07T14:31:06.984Z,48.36
2019-05-07T14:36:06.142Z,49.03
2019-05-07T14:41:07.607Z,51.62
2019-05-07T14:46:06.461Z,49.59
2019-05-07T14:50:07.933Z,50.01
2019-05-07T14:55:06.221Z,49.91
2019-05-07T15:00:12.023Z,50.42
2019-05-07T15:05:06.477Z,49.45
2019-05-07T15:10:06.952Z,51.25
2019-05-07T15:15:07.803Z,49.09
2019-05-07T15:20:06.882Z,47.04
2019-05-07T15:25:06.038Z,45.76
2019-05-07T15:29:07.605Z,46.06
2019-05-07T15:34:06.417Z,45.47
2019-05-07T15:39:07.774Z,43.85
2019-05-07T15:44:06.051Z,43.08
2019-05-07T15:49:06.943Z,42.18
2019-05-07T15:54:06.070Z,43.79
2019-05-07T15:58:06.780Z,44.05
2019-05-07T16:03:06.450Z,46.19
2019-05-07T16:08:07.590Z,46.64
2019-05-07T16:13:06.273Z,48.56
2019-05-07T16:18:06.374Z,48.37
2019-05-07T16:23:18.814Z,47.77
2019-05-07T16:27:07.542Z,50.74
2019-05-07T16:32:06.801Z,49.23
2019-05-07T16:37:08.663Z,47.26
2019-05-07T16:42:06.288Z,48.36
2019-05-07T16:47:07.200Z,47.95
2019-05-07T16:52:06.452Z,46.81
2019-05-07T16:57:07.557Z,46.23
2019-05-07T17:01:07.895Z,47.75
2019-05-07T17:06:06.024Z,49.35
2019-05-07T17:11:07.714Z,52.86
2019-05-07T17:16:06.685Z,52.46
2019-05-07T17:21:06.922Z,50.18
2019-05-07T17:26:06.141Z,53.9
2019-05-07T17:30:11.493Z,56.39
2019-05-07T17:36:06.844Z,59.38
2019-05-07T17:40:07.536Z,59.49
2019-05-07T17:45:07.854Z,55.12
2019-05-07T17:50:08.124Z,52.44
2019-05-07T17:55:10.161Z,51.97
2019-05-07T18:00:08.293Z,58.59
2019-05-07T18:05:06.463Z,59.87
2019-05-07T18:09:07.543Z,63.27
2019-05-07T18:14:08.151Z,61.83
2019-05-07T18:19:06.941Z,62.92
2019-05-07T18:24:13.518Z,64.1
2019-05-07T18:29:07.705Z,67.47
2019-05-07T18:34:06.780Z,68.14
2019-05-07T18:38:06.530Z,68.81
2019-05-07T18:43:06.034Z,68.86
2019-05-07T18:48:06.243Z,69.7
2019-05-07T18:53:07.629Z,71.66
2019-05-07T18:58:07.657Z,72.53
2019-05-07T19:03:07.290Z,74.04
2019-05-07T19:08:08.495Z,75.05
2019-05-07T19:12:07.915Z,75.56
2019-05-07T19:17:06.172Z,76.13
2019-05-07T19:22:06.443Z,77.2
2019-05-07T19:27:06.498Z,78.38
2019-05-07T19:32:07.624Z,81.41
2019-05-07T19:37:07.833Z,81.4
2019-05-07T19:41:08.208Z,81.23
2019-05-07T19:42:07.212Z,81.23
2019-05-07T19:46:06.586Z,82.56
2019-05-07T19:51:06.758Z,83.62
2019-05-07T19:56:06.026Z,83.94
2019-05-07T20:01:06.634Z,84.3
2019-05-07T20:06:06.804Z,86.76
2019-05-07T20:11:06.454Z,86.72
2019-05-07T20:15:08.689Z,85.68
2019-05-07T20:16:05.972Z,85.68
2019-05-07T20:20:06.385Z,85.75
2019-05-07T20:25:16.226Z,86.37
2019-05-07T20:30:07.429Z,87.62
2019-05-07T20:35:06.015Z,89.88
2019-05-07T20:40:06.552Z,92.87
2019-05-07T20:44:07.977Z,92.73
2019-05-07T20:45:07.226Z,92.73
2019-05-07T20:49:07.211Z,92.35
2019-05-07T20:54:07.356Z,92.89
2019-05-07T20:59:07.481Z,92.63
2019-05-07T21:04:06.113Z,90.8
2019-05-07T21:09:06.681Z,90.49
2019-05-07T21:14:06.816Z,91.04
2019-05-07T21:19:06.820Z,90.65
2019-05-07T21:24:06.088Z,90.52
2019-05-07T21:28:07.394Z,91.81
2019-05-07T21:33:07.386Z,91.67
2019-05-07T21:38:07.638Z,91.95
2019-05-07T21:43:07.293Z,94.35
2019-05-07T21:48:07.563Z,92
2019-05-07T21:53:07.752Z,89.7
2019-05-07T21:58:07.810Z,88.88
2019-05-07T22:02:08.478Z,89.12
2019-05-07T22:07:07.499Z,90.17
2019-05-07T22:12:07.231Z,90.37
2019-05-07T22:17:07.342Z,90.02
2019-05-07T22:22:07.587Z,89.71
2019-05-07T22:27:07.751Z,88.28
2019-05-07T22:32:07.436Z,87.13
2019-05-07T22:36:07.250Z,88.33
2019-05-07T22:37:07.817Z,88.33
2019-05-07T22:42:07.424Z,88.75
2019-05-07T22:46:07.064Z,88.05
2019-05-07T22:51:07.188Z,88.06
2019-05-07T22:56:06.390Z,88.51
2019-05-07T23:01:07.742Z,89.39
2019-05-07T23:06:06.893Z,90.47
2019-05-07T23:11:07.478Z,90.75
2019-05-07T23:15:09.041Z,91.03
2019-05-07T23:16:06.843Z,91.03
2019-05-07T23:20:06.721Z,90.97
2019-05-07T23:25:06.763Z,90.65
2019-05-07T23:30:07.939Z,90.57
2019-05-07T23:35:07.064Z,90.37
2019-05-07T23:40:06.439Z,90.23
2019-05-07T23:45:07.390Z,90.38
2019-05-07T23:50:07.093Z,90.81
2019-05-07T23:54:07.557Z,91.19
2019-05-07T23:59:07.675Z,91.6
